createdAt,value
2018-02-24T00:00:02.670Z,21.30
2018-02-24T00:02:30.907Z,18.55
2018-02-24T00:04:58.449Z,25.40
2018-02-24T00:07:25.908Z,22.48
2018-02-24T00:09:53.387Z,19.62
2018-02-24T00:12:20.875Z,20.60
2018-02-24T00:14:49.106Z,21.05
2018-02-24T00:17:16.568Z,20.80
2018-02-24T00:19:44.068Z,22.75
2018-02-24T00:22:14.020Z,21.52
2018-02-24T00:24:41.577Z,23.40
2018-02-24T00:27:09.046Z,22.67
2018-02-24T00:29:36.514Z,29.52
2018-02-24T00:32:03.983Z,26.77
2018-02-24T00:34:31.503Z,22.75
2018-02-24T00:36:59.062Z,27.25
2018-02-24T00:39:26.516Z,27.25
2018-02-24T00:41:54.081Z,23.98
2018-02-24T00:44:21.548Z,30.33
2018-02-24T00:46:49.034Z,25.00
2018-02-24T00:49:17.282Z,21.50
2018-02-24T00:51:44.743Z,23.48
2018-02-24T00:54:12.240Z,27.62
2018-02-24T00:56:40.479Z,33.03
2018-02-24T00:59:07.956Z,26.12
2018-02-24T01:01:35.444Z,32.67
2018-02-24T01:04:03.686Z,28.73
2018-02-24T01:06:31.146Z,32.75
2018-02-24T01:08:58.627Z,32.15
2018-02-24T01:11:26.863Z,23.90
2018-02-24T01:13:54.387Z,23.58
2018-02-24T01:16:21.872Z,37.95
2018-02-24T01:18:49.333Z,34.63
2018-02-24T01:21:16.962Z,31.62
2018-02-24T01:23:44.518Z,26.27
2018-02-24T01:26:12.078Z,30.17
2018-02-24T01:28:39.534Z,30.98
2018-02-24T01:31:07.093Z,31.87
2018-02-24T01:33:34.651Z,30.58
2018-02-24T01:36:02.114Z,27.40
2018-02-24T01:38:29.605Z,27.70
2018-02-24T01:40:57.081Z,33.13
2018-02-24T01:43:25.322Z,34.65
2018-02-24T01:45:52.805Z,38.33
2018-02-24T01:48:21.042Z,37.20
2018-02-24T01:50:48.515Z,33.17
2018-02-24T01:53:15.997Z,28.85
2018-02-24T01:55:43.546Z,36.15
2018-02-24T01:58:11.024Z,37.15
2018-02-24T02:00:39.340Z,41.92
2018-02-24T02:03:06.813Z,36.78
2018-02-24T02:05:34.278Z,35.97
2018-02-24T02:08:01.770Z,36.22
2018-02-24T02:10:30.015Z,35.60
2018-02-24T02:12:57.533Z,39.08
2018-02-24T02:15:25.092Z,34.50
2018-02-24T02:17:52.616Z,38.22
2018-02-24T02:20:20.863Z,39.97
2018-02-24T02:22:49.113Z,40.63
2018-02-24T02:25:16.664Z,37.45
2018-02-24T02:27:44.113Z,40.28
2018-02-24T02:30:11.615Z,41.47
2018-02-24T02:32:39.095Z,42.35
2018-02-24T02:35:07.404Z,41.15
2018-02-24T02:37:34.899Z,40.30
2018-02-24T02:40:02.366Z,42.88
2018-02-24T02:42:29.835Z,33.30
2018-02-24T02:44:58.093Z,40.22
2018-02-24T02:47:25.561Z,39.50
2018-02-24T02:49:53.030Z,38.60
2018-02-24T02:52:21.277Z,37.45
2018-02-24T02:54:48.750Z,32.30
2018-02-24T02:57:16.208Z,40.60
2018-02-24T02:59:44.464Z,40.20
2018-02-24T03:02:11.937Z,35.95
2018-02-24T03:04:39.402Z,43.38
2018-02-24T03:07:07.674Z,38.20
2018-02-24T03:09:35.910Z,42.20
2018-02-24T03:12:03.390Z,41.65
2018-02-24T03:14:31.005Z,41.35
2018-02-24T03:16:58.469Z,36.60
2018-02-24T03:19:25.949Z,36.65
2018-02-24T03:21:53.422Z,37.22
2018-02-24T03:24:20.894Z,34.60
2018-02-24T03:26:48.365Z,32.42
2018-02-24T03:29:16.594Z,41.05
2018-02-24T03:31:44.120Z,38.53
2018-02-24T03:34:11.677Z,33.80
2018-02-24T03:36:39.140Z,38.30
2018-02-24T03:39:06.606Z,34.92
2018-02-24T03:41:34.099Z,36.35
2018-02-24T03:44:01.571Z,39.88
2018-02-24T03:46:29.811Z,35.80
2018-02-24T03:48:57.315Z,37.50
2018-02-24T03:51:24.793Z,30.92
2018-02-24T03:53:52.255Z,29.35
2018-02-24T03:56:19.756Z,34.47
2018-02-24T03:58:47.226Z,34.85
2018-02-24T04:01:15.538Z,32.22
2018-02-24T04:03:43.018Z,36.50
2018-02-24T04:06:10.497Z,33.92
2018-02-24T04:08:38.009Z,34.70
2018-02-24T04:11:05.572Z,37.67
2018-02-24T04:13:33.042Z,33.50
2018-02-24T04:16:00.633Z,37.85
2018-02-24T04:18:28.070Z,36.22
2018-02-24T04:20:55.544Z,39.60
2018-02-24T04:23:23.017Z,33.97
2018-02-24T04:25:51.254Z,34.05
2018-02-24T04:28:18.722Z,41.67
2018-02-24T04:30:46.252Z,44.55
2018-02-24T04:33:14.452Z,43.05
2018-02-24T04:35:41.916Z,33.60
2018-02-24T04:38:09.410Z,36.13
2018-02-24T04:40:36.989Z,33.85
2018-02-24T04:43:04.449Z,43.75
2018-02-24T04:45:31.935Z,30.27
2018-02-24T04:47:59.395Z,32.28
2018-02-24T04:50:26.863Z,30.15
2018-02-24T04:52:54.372Z,43.42
2018-02-24T04:55:21.834Z,39.63
2018-02-24T04:57:49.303Z,39.20
2018-02-24T05:00:16.775Z,37.45
2018-02-24T05:02:44.249Z,34.35
2018-02-24T05:05:11.722Z,32.95
2018-02-24T05:07:39.978Z,45.50
2018-02-24T05:10:07.449Z,37.10
2018-02-24T05:12:35.679Z,36.08
2018-02-24T05:15:03.161Z,41.22
2018-02-24T05:17:30.626Z,36.70
2018-02-24T05:19:58.131Z,35.70
2018-02-24T05:22:25.605Z,37.08
2018-02-24T05:24:53.135Z,37.35
2018-02-24T05:27:20.542Z,39.45
2018-02-24T05:29:49.527Z,37.00
2018-02-24T05:32:16.996Z,28.73
2018-02-24T05:34:44.466Z,39.47
2018-02-24T05:37:12.731Z,33.85
2018-02-24T05:39:40.205Z,37.08
2018-02-24T05:42:08.446Z,30.90
2018-02-24T05:44:35.946Z,36.70
2018-02-24T05:47:04.186Z,33.15
2018-02-24T05:49:31.670Z,33.53
2018-02-24T05:51:59.911Z,29.87
2018-02-24T05:54:27.377Z,37.70
2018-02-24T05:56:54.918Z,35.00
2018-02-24T05:59:22.378Z,29.33
2018-02-24T06:01:49.839Z,39.22
2018-02-24T06:04:17.347Z,36.28
2018-02-24T06:06:44.803Z,35.75
2018-02-24T06:09:12.274Z,33.53
2018-02-24T06:11:39.775Z,36.40
2018-02-24T06:14:07.243Z,41.17
2018-02-24T06:16:35.514Z,35.33
2018-02-24T06:19:03.007Z,42.92
2018-02-24T06:21:30.475Z,39.15
2018-02-24T06:23:57.935Z,30.10
2018-02-24T06:26:25.414Z,33.92
2018-02-24T06:28:52.878Z,38.38
2018-02-24T06:31:20.410Z,34.97
2018-02-24T06:33:47.871Z,34.53
2018-02-24T06:36:15.343Z,34.67
2018-02-24T06:38:43.447Z,35.95
2018-02-24T06:41:10.966Z,38.75
2018-02-24T06:43:42.586Z,31.65
2018-02-24T06:46:10.362Z,35.25
2018-02-24T06:48:37.823Z,34.13
2018-02-24T06:51:05.300Z,38.85
2018-02-24T06:53:32.778Z,35.38
2018-02-24T06:56:00.246Z,32.35
2018-02-24T06:58:28.483Z,32.70
2018-02-24T07:00:55.966Z,36.30
2018-02-24T07:03:23.451Z,38.78
2018-02-24T07:05:51.683Z,37.60
2018-02-24T07:08:19.166Z,36.47
2018-02-24T07:10:47.399Z,34.22
2018-02-24T07:13:14.887Z,39.22
2018-02-24T07:15:43.266Z,30.15
2018-02-24T07:18:10.735Z,33.58
2018-02-24T07:20:38.969Z,44.03
2018-02-24T07:23:06.466Z,32.22
2018-02-24T07:25:33.923Z,39.20
2018-02-24T07:28:02.149Z,36.13
2018-02-24T07:30:29.656Z,32.13
2018-02-24T07:32:57.149Z,33.88
2018-02-24T07:35:24.623Z,33.03
2018-02-24T07:37:52.097Z,32.30
2018-02-24T07:40:20.747Z,41.15
2018-02-24T07:42:48.227Z,28.75
2018-02-24T07:45:15.706Z,42.58
2018-02-24T07:47:43.166Z,36.42
2018-02-24T07:50:10.632Z,32.58
2018-02-24T07:52:38.880Z,31.05
2018-02-24T07:55:06.338Z,28.17
2018-02-24T07:57:33.868Z,29.02
2018-02-24T08:00:01.374Z,30.27
2018-02-24T08:02:29.610Z,27.70
2018-02-24T08:04:57.111Z,44.63
2018-02-24T08:07:24.577Z,28.60
2018-02-24T08:09:52.820Z,34.35
2018-02-24T08:12:20.319Z,33.35
2018-02-24T08:14:48.542Z,33.50
2018-02-24T08:17:16.073Z,41.50
2018-02-24T08:19:43.511Z,31.92
2018-02-24T08:22:12.840Z,39.33
2018-02-24T08:24:40.334Z,31.12
2018-02-24T08:27:08.562Z,40.78
2018-02-24T08:29:36.040Z,28.48
2018-02-24T08:32:03.528Z,31.92
2018-02-24T08:34:31.768Z,36.50
2018-02-24T08:36:59.246Z,29.63
2018-02-24T08:39:26.791Z,27.60
2018-02-24T08:41:54.262Z,29.23
2018-02-24T08:44:22.203Z,31.47
2018-02-24T08:46:49.712Z,29.50
2018-02-24T08:49:18.034Z,28.33
2018-02-24T08:51:45.516Z,27.40
2018-02-24T08:54:12.990Z,24.43
2018-02-24T08:56:41.238Z,25.13
2018-02-24T08:59:08.726Z,24.40
2018-02-24T09:01:36.227Z,29.80
2018-02-24T09:04:03.690Z,28.70
2018-02-24T09:06:31.183Z,26.50
2018-02-24T09:08:58.670Z,25.83
2018-02-24T09:11:26.252Z,23.20
2018-02-24T09:13:53.734Z,21.47
2018-02-24T09:16:21.207Z,27.27
2018-02-24T09:18:49.438Z,22.23
2018-02-24T09:21:16.936Z,28.87
2018-02-24T09:23:44.405Z,24.52
2018-02-24T09:26:12.655Z,23.37
2018-02-24T09:28:40.158Z,18.58
2018-02-24T09:31:07.626Z,26.30
2018-02-24T09:33:35.102Z,24.52
2018-02-24T09:36:02.599Z,24.90
2018-02-24T09:38:30.055Z,23.43
2018-02-24T09:40:57.571Z,28.23
2018-02-24T09:43:25.062Z,20.10
2018-02-24T09:45:52.548Z,25.77
2018-02-24T09:48:20.007Z,23.03
2018-02-24T09:50:48.265Z,23.43
2018-02-24T09:53:15.747Z,27.17
2018-02-24T09:55:44.003Z,23.30
2018-02-24T09:58:11.486Z,17.20
2018-02-24T10:00:38.966Z,17.80
2018-02-24T10:03:06.452Z,22.90
2018-02-24T10:05:33.955Z,23.83
2018-02-24T10:08:02.186Z,18.63
2018-02-24T10:10:29.664Z,19.73
2018-02-24T10:12:57.133Z,24.17
2018-02-24T10:15:25.378Z,17.63
2018-02-24T10:17:52.894Z,17.83
2018-02-24T10:20:20.347Z,22.63
2018-02-24T10:22:47.805Z,16.60
2018-02-24T10:25:15.315Z,20.30
2018-02-24T10:27:42.781Z,19.90
2018-02-24T10:30:11.019Z,18.97
2018-02-24T10:32:38.504Z,21.33
2018-02-24T10:35:05.991Z,17.70
2018-02-24T10:37:34.244Z,18.40
2018-02-24T10:40:03.223Z,16.60
2018-02-24T10:42:31.465Z,18.97
2018-02-24T10:44:58.928Z,22.47
2018-02-24T10:47:26.398Z,19.83
2018-02-24T10:49:53.855Z,15.70
2018-02-24T10:52:21.307Z,17.73
2018-02-24T10:54:51.079Z,16.90
2018-02-24T10:57:18.539Z,15.73
2018-02-24T10:59:46.023Z,14.83
2018-02-24T11:02:13.499Z,20.60
2018-02-24T11:04:40.974Z,18.17
2018-02-24T11:07:08.431Z,17.53
2018-02-24T11:09:36.684Z,16.40
2018-02-24T11:12:04.139Z,18.10
2018-02-24T11:14:31.614Z,19.00
2018-02-24T11:16:59.119Z,18.00
2018-02-24T11:19:26.574Z,18.97
2018-02-24T11:21:54.041Z,18.87
2018-02-24T11:24:21.511Z,17.73
2018-02-24T11:26:48.989Z,18.77
2018-02-24T11:29:16.443Z,20.17
2018-02-24T11:31:43.912Z,23.73
2018-02-24T11:34:11.365Z,15.43
2018-02-24T11:36:40.210Z,18.53
2018-02-24T11:39:07.662Z,19.07
2018-02-24T11:41:35.128Z,20.70
2018-02-24T11:44:02.615Z,19.90
2018-02-24T11:46:30.854Z,12.67
2018-02-24T11:48:58.385Z,14.30
2018-02-24T11:51:25.907Z,15.73
2018-02-24T11:53:53.388Z,18.57
2018-02-24T11:56:21.623Z,16.33
2018-02-24T11:58:49.123Z,16.83
2018-02-24T12:01:17.362Z,18.00
2018-02-24T12:03:44.933Z,17.57
2018-02-24T12:06:12.407Z,13.77
2018-02-24T12:08:40.634Z,19.37
2018-02-24T12:11:08.107Z,19.50
2018-02-24T12:13:35.575Z,15.93
2018-02-24T12:16:04.544Z,13.37
2018-02-24T12:18:32.011Z,18.67
2018-02-24T12:20:59.487Z,12.23
2018-02-24T12:23:27.004Z,17.13
2018-02-24T12:25:54.484Z,20.40
2018-02-24T12:28:21.963Z,18.57
2018-02-24T12:30:50.203Z,14.03
2018-02-24T12:33:17.742Z,15.70
2018-02-24T12:35:45.223Z,13.17
2018-02-24T12:38:12.701Z,13.90
2018-02-24T12:40:40.184Z,13.07
2018-02-24T12:43:08.443Z,12.10
2018-02-24T12:45:37.310Z,15.50
2018-02-24T12:48:04.811Z,17.93
2018-02-24T12:50:32.281Z,13.03
2018-02-24T12:52:59.743Z,12.10
2018-02-24T12:55:28.131Z,11.60
2018-02-24T12:57:55.590Z,14.20
2018-02-24T13:00:23.078Z,13.83
2018-02-24T13:02:51.309Z,10.87
2018-02-24T13:05:18.781Z,17.40
2018-02-24T13:07:46.272Z,10.73
2018-02-24T13:10:13.738Z,25.60
2018-02-24T13:12:41.970Z,9.40
2018-02-24T13:15:09.438Z,15.73
2018-02-24T13:17:36.917Z,14.13
2018-02-24T13:20:05.919Z,10.90
2018-02-24T13:22:34.155Z,10.50
2018-02-24T13:25:01.634Z,13.33
2018-02-24T13:27:29.111Z,11.53
2018-02-24T13:29:57.346Z,8.87
2018-02-24T13:32:24.881Z,12.53
2018-02-24T13:34:53.070Z,10.67
2018-02-24T13:37:20.560Z,14.43
2018-02-24T13:39:48.016Z,10.90
2018-02-24T13:42:15.568Z,13.00
2018-02-24T13:44:43.051Z,10.63
2018-02-24T13:47:11.300Z,13.07
2018-02-24T13:49:39.557Z,11.77
2018-02-24T13:52:07.015Z,12.40
2018-02-24T13:54:34.522Z,11.83
2018-02-24T13:57:02.895Z,9.87
2018-02-24T13:59:31.127Z,12.07
2018-02-24T14:01:58.649Z,9.63
2018-02-24T14:04:26.111Z,11.90
2018-02-24T14:06:53.592Z,10.07
2018-02-24T14:09:21.075Z,23.63
2018-02-24T14:11:48.556Z,14.93
2018-02-24T14:14:16.027Z,9.63
2018-02-24T14:16:43.494Z,7.50
2018-02-24T14:19:10.988Z,8.73
2018-02-24T14:21:38.429Z,9.77
2018-02-24T14:24:05.946Z,10.27
2018-02-24T14:26:33.404Z,9.27
2018-02-24T14:29:00.904Z,7.97
2018-02-24T14:31:28.365Z,7.57
2018-02-24T14:33:55.871Z,8.93
2018-02-24T14:36:23.355Z,8.10
2018-02-24T14:38:50.807Z,9.87
2018-02-24T14:41:18.314Z,7.63
2018-02-24T14:43:46.540Z,7.20
2018-02-24T14:46:14.954Z,7.40
2018-02-24T14:48:42.415Z,13.50
2018-02-24T14:51:09.887Z,9.30
2018-02-24T14:53:38.131Z,7.37
2018-02-24T14:56:05.654Z,8.90
2018-02-24T14:58:33.222Z,6.40
2018-02-24T15:01:00.691Z,8.50
2018-02-24T15:03:28.166Z,7.10
2018-02-24T15:05:55.656Z,9.37
2018-02-24T15:08:23.932Z,8.40
2018-02-24T15:10:51.439Z,11.73
2018-02-24T15:13:18.903Z,6.23
2018-02-24T15:15:46.369Z,9.40
2018-02-24T15:18:13.857Z,10.70
2018-02-24T15:20:42.092Z,9.27
2018-02-24T15:23:09.566Z,8.33
2018-02-24T15:25:37.039Z,12.60
2018-02-24T15:28:05.276Z,8.70
2018-02-24T15:30:32.785Z,7.60
2018-02-24T15:33:00.234Z,10.17
2018-02-24T15:35:28.501Z,5.83
2018-02-24T15:37:56.758Z,8.02
2018-02-24T15:40:24.222Z,9.00
2018-02-24T15:42:52.897Z,11.50
2018-02-24T15:45:20.364Z,10.65
2018-02-24T15:47:48.613Z,6.93
2018-02-24T15:50:16.094Z,8.07
2018-02-24T15:52:44.365Z,7.55
2018-02-24T15:55:11.846Z,14.02
2018-02-24T15:57:39.335Z,10.23
2018-02-24T16:00:06.818Z,10.60
2018-02-24T16:02:34.297Z,9.77
2018-02-24T16:05:01.778Z,11.20
2018-02-24T16:07:29.246Z,8.32
2018-02-24T16:09:56.751Z,13.27
2018-02-24T16:12:24.224Z,10.27
2018-02-24T16:14:52.462Z,11.45
2018-02-24T16:17:19.947Z,8.15
2018-02-24T16:19:47.402Z,9.35
2018-02-24T16:22:14.890Z,9.60
2018-02-24T16:24:43.131Z,9.70
2018-02-24T16:27:10.602Z,9.98
2018-02-24T16:29:38.871Z,11.12
2018-02-24T16:32:06.326Z,12.88
2018-02-24T16:34:33.796Z,13.80
2018-02-24T16:37:02.062Z,10.85
2018-02-24T16:39:29.542Z,10.02
2018-02-24T16:41:57.799Z,13.62
2018-02-24T16:44:26.035Z,11.40
2018-02-24T16:46:53.500Z,16.30
2018-02-24T16:49:21.464Z,11.93
2018-02-24T16:51:48.932Z,8.65
2018-02-24T16:54:16.402Z,12.00
2018-02-24T16:56:43.888Z,14.80
2018-02-24T16:59:12.133Z,10.27
2018-02-24T17:01:40.863Z,19.10
2018-02-24T17:04:08.364Z,14.60
2018-02-24T17:06:35.827Z,12.13
2018-02-24T17:09:03.292Z,11.85
2018-02-24T17:11:30.788Z,9.88
2018-02-24T17:13:58.261Z,14.95
2018-02-24T17:16:25.748Z,11.50
2018-02-24T17:18:54.075Z,11.20
2018-02-24T17:21:21.539Z,13.70
2018-02-24T17:23:49.039Z,11.07
2018-02-24T17:26:16.518Z,16.20
2018-02-24T17:28:43.979Z,12.63
2018-02-24T17:31:12.235Z,9.82
2018-02-24T17:33:39.687Z,23.08
2018-02-24T17:36:07.153Z,11.60
2018-02-24T17:38:34.640Z,13.48
2018-02-24T17:41:02.880Z,14.50
2018-02-24T17:43:31.284Z,10.48
2018-02-24T17:45:59.509Z,12.18
2018-02-24T17:48:27.012Z,11.15
2018-02-24T17:50:55.255Z,9.25
2018-02-24T17:53:22.733Z,14.05
2018-02-24T17:55:50.217Z,8.63
2018-02-24T17:58:17.673Z,12.80
2018-02-24T18:00:45.151Z,7.65
2018-02-24T18:03:12.678Z,10.85
2018-02-24T18:05:40.911Z,11.73
2018-02-24T18:08:08.371Z,9.82
2018-02-24T18:10:35.860Z,11.88
2018-02-24T18:13:04.086Z,10.35
2018-02-24T18:15:31.538Z,9.73
2018-02-24T18:17:59.012Z,7.03
2018-02-24T18:20:26.468Z,6.95
2018-02-24T18:22:53.932Z,9.18
2018-02-24T18:25:21.427Z,7.25
2018-02-24T18:27:48.876Z,7.32
2018-02-24T18:30:16.327Z,10.63
2018-02-24T18:32:44.587Z,7.57
2018-02-24T18:35:12.049Z,6.82
2018-02-24T18:37:40.279Z,5.57
2018-02-24T18:40:07.771Z,6.12
2018-02-24T18:42:35.238Z,7.65
2018-02-24T18:45:03.479Z,6.45
2018-02-24T18:47:30.969Z,7.78
2018-02-24T18:49:58.437Z,7.93
2018-02-24T18:52:26.675Z,4.90
2018-02-24T18:54:54.163Z,7.15
2018-02-24T18:57:22.439Z,7.72
2018-02-24T18:59:50.672Z,5.03
2018-02-24T19:02:18.172Z,4.20
2018-02-24T19:04:46.431Z,6.30
2018-02-24T19:07:13.907Z,4.78
2018-02-24T19:09:42.155Z,5.45
2018-02-24T19:12:09.628Z,4.78
2018-02-24T19:14:37.884Z,3.55
2018-02-24T19:17:05.388Z,5.65
2018-02-24T19:19:32.868Z,3.70
2018-02-24T19:22:00.324Z,6.32
2018-02-24T19:24:27.884Z,6.72
2018-02-24T19:26:55.339Z,3.05
2018-02-24T19:29:22.818Z,3.28
2018-02-24T19:31:50.311Z,3.25
2018-02-24T19:34:18.545Z,5.18
2018-02-24T19:36:46.023Z,2.75
2018-02-24T19:39:13.487Z,3.33
2018-02-24T19:41:41.773Z,5.47
2018-02-24T19:44:10.019Z,5.60
2018-02-24T19:46:37.512Z,5.55
2018-02-24T19:49:05.745Z,4.07
2018-02-24T19:51:33.219Z,4.85
2018-02-24T19:54:00.716Z,5.30
2018-02-24T19:56:28.192Z,3.75
2018-02-24T19:58:55.651Z,10.77
2018-02-24T20:01:23.131Z,2.78
2018-02-24T20:03:50.599Z,6.40
2018-02-24T20:06:18.095Z,4.18
2018-02-24T20:08:45.595Z,4.68
2018-02-24T20:11:13.062Z,7.18
2018-02-24T20:13:41.315Z,4.93
2018-02-24T20:16:08.776Z,7.15
2018-02-24T20:18:36.257Z,4.50
2018-02-24T20:21:03.828Z,4.35
2018-02-24T20:23:31.242Z,9.15
2018-02-24T20:25:58.698Z,5.10
2018-02-24T20:28:26.184Z,4.03
2018-02-24T20:30:53.658Z,4.53
2018-02-24T20:33:21.930Z,3.55
2018-02-24T20:35:49.432Z,6.45
2018-02-24T20:38:16.902Z,3.75
2018-02-24T20:40:44.380Z,3.75
2018-02-24T20:43:11.873Z,3.67
2018-02-24T20:45:40.146Z,5.47
2018-02-24T20:48:08.395Z,3.60
2018-02-24T20:50:35.874Z,3.72
2018-02-24T20:53:04.146Z,3.78
2018-02-24T20:55:32.399Z,4.50
2018-02-24T20:57:59.872Z,3.50
2018-02-24T21:00:28.120Z,3.95
2018-02-24T21:02:55.583Z,3.37
2018-02-24T21:05:23.151Z,4.00
2018-02-24T21:07:50.623Z,2.62
2018-02-24T21:10:18.878Z,9.32
2018-02-24T21:12:46.403Z,5.18
2018-02-24T21:15:13.886Z,4.03
2018-02-24T21:17:41.409Z,3.55
2018-02-24T21:20:08.877Z,6.10
2018-02-24T21:22:36.378Z,3.58
2018-02-24T21:25:04.631Z,6.12
2018-02-24T21:27:32.136Z,6.35
2018-02-24T21:29:59.627Z,3.87
2018-02-24T21:32:27.090Z,3.20
2018-02-24T21:34:54.578Z,1.85
2018-02-24T21:37:22.070Z,6.30
2018-02-24T21:39:49.539Z,6.50
2018-02-24T21:42:16.998Z,5.78
2018-02-24T21:44:44.487Z,2.20
2018-02-24T21:47:12.827Z,3.50
2018-02-24T21:49:40.313Z,2.92
2018-02-24T21:52:07.832Z,5.72
2018-02-24T21:54:37.288Z,7.40
2018-02-24T21:57:04.754Z,6.15
2018-02-24T21:59:32.231Z,5.35
2018-02-24T22:01:59.703Z,6.50
2018-02-24T22:04:27.171Z,5.43
2018-02-24T22:06:54.707Z,5.95
2018-02-24T22:09:22.953Z,4.82
2018-02-24T22:11:50.424Z,2.62
2018-02-24T22:14:18.679Z,4.05
2018-02-24T22:16:46.146Z,3.15
2018-02-24T22:19:13.654Z,3.60
2018-02-24T22:21:41.213Z,3.40
2018-02-24T22:24:08.676Z,5.90
2018-02-24T22:26:36.146Z,4.10
2018-02-24T22:29:03.623Z,4.75
2018-02-24T22:31:31.078Z,5.40
2018-02-24T22:33:58.582Z,5.00
2018-02-24T22:36:26.037Z,4.45
2018-02-24T22:38:53.530Z,4.95
2018-02-24T22:41:20.999Z,4.47
2018-02-24T22:43:48.514Z,4.47
2018-02-24T22:46:16.920Z,4.45
2018-02-24T22:48:50.114Z,4.47
2018-02-24T22:51:17.572Z,3.65
2018-02-24T22:53:45.047Z,5.15
2018-02-24T22:56:12.543Z,5.75
2018-02-24T22:58:40.113Z,3.83
2018-02-24T23:01:07.671Z,4.40
2018-02-24T23:03:35.156Z,3.78
2018-02-24T23:06:02.617Z,11.75
2018-02-24T23:08:30.076Z,3.72
2018-02-24T23:10:57.604Z,4.30
2018-02-24T23:13:25.156Z,4.00
2018-02-24T23:15:52.647Z,6.00
2018-02-24T23:18:20.172Z,9.68
2018-02-24T23:20:47.643Z,5.72
2018-02-24T23:23:15.130Z,4.45
2018-02-24T23:25:44.136Z,4.95
2018-02-24T23:28:11.597Z,7.87
2018-02-24T23:30:39.832Z,3.35
2018-02-24T23:33:07.319Z,15.73
2018-02-24T23:35:34.787Z,6.20
2018-02-24T23:38:03.056Z,6.37
2018-02-24T23:40:30.554Z,7.62
2018-02-24T23:42:58.011Z,4.12
2018-02-24T23:45:25.496Z,4.25
2018-02-24T23:47:52.956Z,4.05
2018-02-24T23:50:20.442Z,7.68
2018-02-24T23:52:48.696Z,3.72
2018-02-24T23:55:16.162Z,5.40
2018-02-24T23:57:44.407Z,5.75
